createdAt,value
2022-08-26T00:01:06.298Z,97.90
2022-08-26T00:04:10.518Z,97.31
2022-08-26T00:07:13.115Z,96.94
2022-08-26T00:10:15.691Z,96.46
2022-08-26T00:13:19.647Z,98.59
2022-08-26T00:16:26.998Z,98.70
2022-08-26T00:19:29.462Z,99.77
2022-08-26T00:22:32.031Z,99.25
2022-08-26T00:25:35.540Z,98.52
2022-08-26T00:28:45.481Z,99.41
2022-08-26T00:31:47.766Z,97.88
2022-08-26T00:34:50.852Z,98.60
2022-08-26T00:37:53.306Z,98.32
2022-08-26T00:40:59.417Z,98.58
2022-08-26T00:44:02.236Z,98.55
2022-08-26T00:47:11.295Z,98.46
2022-08-26T00:50:18.383Z,98.20
2022-08-26T00:53:27.831Z,97.78
2022-08-26T00:56:42.134Z,98.31
2022-08-26T00:59:51.377Z,99.43
2022-08-26T01:02:54.858Z,99.48
2022-08-26T01:06:00.212Z,98.66
2022-08-26T01:09:02.435Z,99.80
2022-08-26T01:12:08.024Z,100.00
2022-08-26T01:15:15.322Z,100.00
2022-08-26T01:18:18.407Z,100.00
2022-08-26T01:21:32.952Z,100.00
2022-08-26T01:24:37.378Z,100.00
2022-08-26T01:27:39.686Z,100.00
2022-08-26T01:30:44.898Z,100.00
2022-08-26T01:34:06.884Z,100.00
2022-08-26T01:37:18.492Z,100.00
2022-08-26T01:40:26.172Z,100.00
2022-08-26T01:43:29.406Z,100.00
2022-08-26T01:46:32.444Z,100.00
2022-08-26T01:49:37.161Z,100.00
2022-08-26T01:52:43.367Z,100.00
2022-08-26T01:55:49.385Z,100.00
2022-08-26T01:58:55.341Z,100.00
2022-08-26T02:01:58.952Z,100.00
2022-08-26T02:05:05.412Z,100.00
2022-08-26T02:08:08.283Z,100.00
2022-08-26T02:11:11.871Z,100.00
2022-08-26T02:14:21.420Z,100.00
2022-08-26T02:17:29.880Z,100.00
2022-08-26T02:20:32.666Z,100.00
2022-08-26T02:23:35.347Z,100.00
2022-08-26T02:26:37.983Z,100.00
2022-08-26T02:29:44.890Z,100.00
2022-08-26T02:32:49.596Z,100.00
2022-08-26T02:35:52.376Z,100.00
2022-08-26T02:38:54.528Z,100.00
2022-08-26T02:41:59.206Z,100.00
2022-08-26T02:45:01.955Z,100.00
2022-08-26T02:48:13.077Z,100.00
2022-08-26T02:51:15.520Z,100.00
2022-08-26T02:54:19.736Z,100.00
2022-08-26T02:57:22.911Z,100.00
2022-08-26T03:00:27.216Z,100.00
2022-08-26T03:03:30.158Z,100.00
2022-08-26T03:06:33.154Z,100.00
2022-08-26T03:09:36.166Z,100.00
2022-08-26T03:12:41.113Z,100.00
2022-08-26T03:15:43.380Z,100.00
2022-08-26T03:18:52.215Z,100.00
2022-08-26T03:21:57.934Z,100.00
2022-08-26T03:25:00.707Z,100.00
2022-08-26T03:28:04.875Z,100.00
2022-08-26T03:31:07.366Z,100.00
2022-08-26T03:34:11.201Z,100.00
2022-08-26T03:37:14.744Z,100.00
2022-08-26T03:40:20.288Z,100.00
2022-08-26T03:43:26.733Z,100.00
2022-08-26T03:46:30.509Z,100.00
2022-08-26T03:49:34.858Z,100.00
2022-08-26T03:52:43.068Z,100.00
2022-08-26T03:55:47.174Z,100.00
2022-08-26T03:58:54.391Z,100.00
2022-08-26T04:01:56.952Z,100.00
2022-08-26T04:04:59.424Z,100.00
2022-08-26T04:08:01.530Z,100.00
2022-08-26T04:11:04.563Z,100.00
2022-08-26T04:14:10.293Z,100.00
2022-08-26T04:17:13.394Z,100.00
2022-08-26T04:20:18.114Z,100.00
2022-08-26T04:23:20.804Z,100.00
2022-08-26T04:26:23.502Z,100.00
2022-08-26T04:29:26.580Z,100.00
2022-08-26T04:32:28.729Z,100.00
2022-08-26T04:35:31.854Z,100.00
2022-08-26T04:38:34.504Z,100.00
2022-08-26T04:41:36.921Z,100.00
2022-08-26T04:44:39.036Z,100.00
2022-08-26T04:47:41.987Z,97.80
2022-08-26T04:50:44.165Z,96.63
2022-08-26T04:53:52.753Z,96.48
2022-08-26T04:56:55.088Z,95.71
2022-08-26T04:59:57.976Z,94.83
2022-08-26T05:03:00.578Z,91.38
2022-08-26T05:06:05.233Z,82.32
2022-08-26T05:09:07.490Z,75.00
2022-08-26T05:12:10.271Z,69.14
2022-08-26T05:15:12.477Z,62.57
2022-08-26T05:18:22.751Z,57.27
2022-08-26T05:21:30.530Z,54.61
2022-08-26T05:24:33.302Z,51.48
2022-08-26T05:27:35.614Z,49.44
2022-08-26T05:30:40.279Z,47.79
2022-08-26T05:33:43.969Z,45.10
2022-08-26T05:36:46.778Z,42.68
2022-08-26T05:39:51.195Z,42.48
2022-08-26T05:42:55.567Z,40.46
2022-08-26T05:46:07.983Z,39.42
2022-08-26T05:49:13.059Z,38.18
2022-08-26T05:52:15.867Z,37.29
2022-08-26T05:55:20.155Z,36.97
2022-08-26T05:58:23.536Z,36.08
2022-08-26T06:01:27.877Z,35.30
2022-08-26T06:04:31.409Z,34.43
2022-08-26T06:07:52.491Z,34.77
2022-08-26T06:10:59.951Z,35.38
2022-08-26T06:14:05.398Z,34.56
2022-08-26T06:17:09.621Z,31.91
2022-08-26T06:20:12.084Z,32.01
2022-08-26T06:23:35.414Z,30.50
2022-08-26T06:26:38.106Z,29.35
2022-08-26T06:29:41.586Z,29.35
2022-08-26T06:32:46.720Z,28.70
2022-08-26T06:35:51.194Z,28.81
2022-08-26T06:38:56.183Z,27.07
2022-08-26T06:42:01.003Z,27.14
2022-08-26T06:45:09.098Z,25.65
2022-08-26T06:48:14.224Z,24.45
2022-08-26T06:51:20.465Z,26.48
2022-08-26T06:54:27.762Z,25.11
2022-08-26T06:57:32.823Z,24.29
2022-08-26T07:00:38.683Z,24.02
2022-08-26T07:03:43.757Z,23.85
2022-08-26T07:06:52.944Z,23.95
2022-08-26T07:09:55.668Z,22.92
2022-08-26T07:12:58.080Z,22.78
2022-08-26T07:16:03.310Z,23.13
2022-08-26T07:19:11.138Z,22.49
2022-08-26T07:22:13.979Z,23.32
2022-08-26T07:25:16.512Z,23.65
2022-08-26T07:28:22.726Z,24.26
2022-08-26T07:31:28.369Z,23.00
2022-08-26T07:34:33.180Z,25.25
2022-08-26T07:37:39.218Z,24.44
2022-08-26T07:40:41.738Z,24.46
2022-08-26T07:43:45.514Z,26.47
2022-08-26T07:46:52.082Z,26.94
2022-08-26T07:49:57.308Z,28.66
2022-08-26T07:53:02.283Z,28.93
2022-08-26T07:56:08.856Z,30.95
2022-08-26T07:59:15.174Z,33.73
2022-08-26T08:02:17.736Z,33.31
2022-08-26T08:05:22.600Z,35.23
2022-08-26T08:08:29.710Z,35.21
2022-08-26T08:11:34.222Z,36.36
2022-08-26T08:14:37.318Z,36.47
2022-08-26T08:17:42.847Z,37.55
2022-08-26T08:20:54.692Z,36.86
2022-08-26T08:24:07.979Z,37.65
2022-08-26T08:27:10.849Z,37.71
2022-08-26T08:30:22.679Z,38.59
2022-08-26T08:33:25.658Z,38.99
2022-08-26T08:36:32.155Z,37.56
2022-08-26T08:39:38.523Z,36.86
2022-08-26T08:43:01.612Z,37.02
2022-08-26T08:46:12.405Z,37.16
2022-08-26T08:49:15.506Z,36.52
2022-08-26T08:52:30.924Z,36.46
2022-08-26T08:55:56.847Z,35.84
2022-08-26T08:59:20.334Z,34.99
2022-08-26T09:02:53.466Z,35.90
2022-08-26T09:05:58.854Z,34.85
2022-08-26T09:09:03.843Z,35.67
2022-08-26T09:12:12.979Z,36.20
2022-08-26T09:15:25.465Z,37.50
2022-08-26T09:18:39.271Z,36.48
2022-08-26T09:21:41.869Z,36.41
2022-08-26T09:24:48.402Z,35.57
2022-08-26T09:27:54.019Z,34.80
2022-08-26T09:31:13.406Z,35.13
2022-08-26T09:34:25.472Z,34.93
2022-08-26T09:41:01.539Z,34.08
2022-08-26T09:44:04.196Z,34.84
2022-08-26T09:47:08.801Z,33.79
2022-08-26T09:50:28.957Z,33.63
2022-08-26T09:53:36.617Z,33.13
2022-08-26T09:56:40.863Z,33.25
2022-08-26T09:59:44.183Z,34.39
2022-08-26T10:02:47.697Z,34.34
2022-08-26T10:06:17.410Z,32.97
2022-08-26T10:09:20.284Z,34.40
2022-08-26T10:12:24.296Z,34.26
2022-08-26T10:15:28.028Z,34.72
2022-08-26T10:18:34.784Z,32.78
2022-08-26T10:21:54.160Z,32.89
2022-08-26T10:25:02.959Z,33.71
2022-08-26T10:28:21.654Z,32.16
2022-08-26T10:31:40.678Z,33.33
2022-08-26T10:34:44.449Z,32.13
2022-08-26T10:37:54.762Z,32.46
2022-08-26T10:41:00.882Z,30.90
2022-08-26T10:44:07.711Z,31.67
2022-08-26T10:47:18.474Z,31.28
2022-08-26T10:50:24.792Z,32.01
2022-08-26T10:53:36.210Z,30.82
2022-08-26T10:57:01.983Z,30.95
2022-08-26T11:00:37.048Z,30.41
2022-08-26T11:04:11.594Z,30.33
2022-08-26T11:07:35.369Z,30.14
2022-08-26T11:10:54.998Z,28.06
2022-08-26T11:14:04.366Z,29.74
2022-08-26T11:17:11.381Z,29.34
2022-08-26T11:20:22.856Z,29.80
2022-08-26T11:23:27.137Z,30.35
2022-08-26T11:26:55.250Z,29.54
2022-08-26T11:30:11.952Z,30.33
2022-08-26T11:33:46.491Z,29.85
2022-08-26T11:36:56.883Z,29.18
2022-08-26T11:40:02.899Z,30.59
2022-08-26T11:43:18.625Z,30.44
2022-08-26T11:46:32.238Z,28.90
2022-08-26T11:49:35.105Z,28.33
2022-08-26T11:52:37.588Z,29.49
2022-08-26T11:55:45.092Z,28.78
2022-08-26T11:58:51.016Z,29.19
2022-08-26T12:01:56.071Z,28.68
2022-08-26T12:05:02.967Z,29.37
2022-08-26T12:08:12.310Z,28.58
2022-08-26T12:11:29.336Z,28.52
2022-08-26T12:14:31.579Z,29.98
2022-08-26T12:17:35.463Z,29.00
2022-08-26T12:20:55.929Z,29.10
2022-08-26T12:24:00.525Z,29.07
2022-08-26T12:27:20.890Z,28.26
2022-08-26T12:30:24.764Z,28.67
2022-08-26T12:33:31.656Z,29.75
2022-08-26T12:36:40.755Z,28.12
2022-08-26T12:39:45.196Z,29.61
2022-08-26T12:42:47.579Z,29.70
2022-08-26T12:46:00.190Z,29.29
2022-08-26T12:49:03.863Z,28.03
2022-08-26T12:52:09.372Z,27.59
2022-08-26T12:55:25.870Z,30.92
2022-08-26T12:58:29.967Z,28.88
2022-08-26T13:01:39.049Z,27.84
2022-08-26T13:04:43.899Z,28.55
2022-08-26T13:08:09.048Z,29.49
2022-08-26T13:11:13.264Z,27.58
2022-08-26T13:14:23.915Z,29.69
2022-08-26T13:17:28.651Z,27.81
2022-08-26T13:20:32.273Z,28.38
2022-08-26T13:23:35.439Z,27.81
2022-08-26T13:26:41.690Z,28.54
2022-08-26T13:29:43.880Z,26.84
2022-08-26T13:32:46.306Z,28.02
2022-08-26T13:35:48.696Z,27.42
2022-08-26T13:38:52.066Z,29.40
2022-08-26T13:41:54.611Z,27.74
2022-08-26T13:44:58.170Z,27.59
2022-08-26T13:48:00.457Z,27.79
2022-08-26T13:51:02.906Z,27.84
2022-08-26T13:54:11.121Z,28.31
2022-08-26T13:57:13.620Z,28.88
2022-08-26T14:00:16.440Z,27.85
2022-08-26T14:03:19.182Z,28.66
2022-08-26T14:06:21.560Z,28.04
2022-08-26T14:09:24.363Z,28.75
2022-08-26T14:12:26.603Z,28.83
2022-08-26T14:15:31.906Z,28.66
2022-08-26T14:18:41.795Z,30.07
2022-08-26T14:21:46.325Z,30.91
2022-08-26T14:24:49.123Z,30.77
2022-08-26T14:27:55.340Z,30.37
2022-08-26T14:30:58.304Z,30.61
2022-08-26T14:34:06.781Z,30.64
2022-08-26T14:37:15.206Z,30.46
2022-08-26T14:40:19.210Z,30.85
2022-08-26T14:43:21.858Z,30.18
2022-08-26T14:46:28.938Z,29.57
2022-08-26T14:49:32.598Z,31.46
2022-08-26T14:52:55.075Z,31.97
2022-08-26T14:55:57.970Z,31.72
2022-08-26T14:59:00.450Z,30.44
2022-08-26T15:02:05.178Z,32.64
2022-08-26T15:05:08.663Z,31.33
2022-08-26T15:08:11.871Z,31.00
2022-08-26T15:11:14.522Z,30.30
2022-08-26T15:14:19.786Z,32.30
2022-08-26T15:17:23.412Z,31.50
2022-08-26T15:20:25.699Z,33.93
2022-08-26T15:23:28.241Z,31.49
2022-08-26T15:26:32.058Z,32.82
2022-08-26T15:29:36.288Z,31.27
2022-08-26T15:32:38.761Z,32.50
2022-08-26T15:35:41.246Z,31.27
2022-08-26T15:38:45.272Z,33.15
2022-08-26T15:41:47.843Z,33.11
2022-08-26T15:44:50.063Z,32.58
2022-08-26T15:48:00.880Z,32.52
2022-08-26T15:51:04.453Z,33.50
2022-08-26T15:54:10.299Z,33.42
2022-08-26T15:57:15.342Z,34.37
2022-08-26T16:00:19.984Z,34.95
2022-08-26T16:03:22.705Z,35.03
2022-08-26T16:06:28.715Z,35.54
2022-08-26T16:09:31.206Z,37.45
2022-08-26T16:12:33.348Z,37.16
2022-08-26T16:15:37.667Z,37.11
2022-08-26T16:18:40.172Z,36.57
2022-08-26T16:21:43.565Z,37.00
2022-08-26T16:24:45.735Z,38.48
2022-08-26T16:27:48.202Z,38.35
2022-08-26T16:30:50.485Z,38.48
2022-08-26T16:33:53.845Z,38.91
2022-08-26T16:36:55.999Z,39.23
2022-08-26T16:40:00.897Z,40.00
2022-08-26T16:43:04.076Z,39.64
2022-08-26T16:46:07.136Z,39.95
2022-08-26T16:49:09.319Z,40.26
2022-08-26T16:52:11.954Z,41.42
2022-08-26T16:55:17.071Z,43.08
2022-08-26T16:58:21.960Z,43.58
2022-08-26T17:01:26.749Z,43.46
2022-08-26T17:04:29.295Z,44.17
2022-08-26T17:07:31.531Z,43.64
2022-08-26T17:10:34.965Z,43.76
2022-08-26T17:13:39.049Z,44.44
2022-08-26T17:16:41.541Z,44.82
2022-08-26T17:19:46.918Z,44.32
2022-08-26T17:22:51.823Z,44.10
2022-08-26T17:25:53.951Z,45.61
2022-08-26T17:28:56.493Z,44.95
2022-08-26T17:31:58.791Z,45.35
2022-08-26T17:35:01.898Z,45.93
2022-08-26T17:38:04.123Z,46.47
2022-08-26T17:41:08.766Z,45.79
2022-08-26T17:44:11.211Z,45.85
2022-08-26T17:47:13.943Z,46.92
2022-08-26T17:50:18.216Z,46.86
2022-08-26T17:53:21.661Z,47.23
2022-08-26T17:56:27.784Z,48.60
2022-08-26T17:59:30.717Z,48.89
2022-08-26T18:02:33.003Z,48.57
2022-08-26T18:05:35.706Z,48.54
2022-08-26T18:08:38.955Z,49.34
2022-08-26T18:11:41.540Z,49.60
2022-08-26T18:14:43.710Z,50.06
2022-08-26T18:17:46.614Z,50.84
2022-08-26T18:20:51.825Z,50.82
2022-08-26T18:23:58.147Z,51.04
2022-08-26T18:27:00.617Z,51.02
2022-08-26T18:30:14.622Z,51.21
2022-08-26T18:33:19.342Z,51.42
2022-08-26T18:36:27.309Z,51.39
2022-08-26T18:39:29.467Z,51.51
2022-08-26T18:42:31.959Z,52.46
2022-08-26T18:45:34.869Z,52.24
2022-08-26T18:48:39.618Z,52.63
2022-08-26T18:51:42.911Z,52.89
2022-08-26T18:54:46.368Z,53.16
2022-08-26T18:57:50.657Z,53.41
2022-08-26T19:00:55.448Z,53.92
2022-08-26T19:03:59.919Z,54.20
2022-08-26T19:07:02.542Z,54.21
2022-08-26T19:10:05.702Z,54.52
2022-08-26T19:13:10.085Z,54.68
2022-08-26T19:16:20.144Z,55.13
2022-08-26T19:19:25.391Z,55.34
2022-08-26T19:22:27.612Z,54.97
2022-08-26T19:25:30.170Z,54.92
2022-08-26T19:28:32.748Z,55.89
2022-08-26T19:31:35.619Z,55.61
2022-08-26T19:34:37.940Z,55.22
2022-08-26T19:37:40.705Z,55.41
2022-08-26T19:40:43.334Z,55.52
2022-08-26T19:43:46.204Z,54.40
2022-08-26T19:46:48.544Z,54.30
2022-08-26T19:49:55.995Z,54.03
2022-08-26T19:52:58.770Z,54.87
2022-08-26T19:56:01.275Z,54.31
2022-08-26T19:59:04.944Z,53.55
2022-08-26T20:02:10.892Z,53.75
2022-08-26T20:05:15.687Z,52.75
2022-08-26T20:08:22.516Z,52.42
2022-08-26T20:11:25.583Z,53.67
2022-08-26T20:14:30.031Z,53.44
2022-08-26T20:17:32.814Z,53.79
2022-08-26T20:20:55.527Z,53.62
2022-08-26T20:24:08.302Z,53.99
2022-08-26T20:27:10.819Z,54.42
2022-08-26T20:30:13.791Z,55.05
2022-08-26T20:33:16.127Z,55.69
2022-08-26T20:36:21.218Z,56.00
2022-08-26T20:39:23.573Z,55.55
2022-08-26T20:42:26.527Z,56.63
2022-08-26T20:45:28.771Z,57.69
2022-08-26T20:48:31.442Z,57.01
2022-08-26T20:51:34.571Z,57.25
2022-08-26T20:54:37.038Z,57.32
2022-08-26T20:57:39.314Z,57.21
2022-08-26T21:00:42.104Z,57.49
2022-08-26T21:03:44.798Z,57.14
2022-08-26T21:06:52.856Z,57.60
2022-08-26T21:09:55.459Z,57.33
2022-08-26T21:12:57.997Z,57.50
2022-08-26T21:16:00.207Z,58.31
2022-08-26T21:19:04.980Z,59.95
2022-08-26T21:22:07.154Z,61.59
2022-08-26T21:25:09.956Z,61.58
2022-08-26T21:28:12.157Z,61.82
2022-08-26T21:31:18.261Z,61.63
2022-08-26T21:34:20.506Z,61.57
2022-08-26T21:37:23.508Z,63.07
2022-08-26T21:40:27.804Z,63.47
2022-08-26T21:43:35.305Z,63.42
2022-08-26T21:46:39.955Z,64.67
2022-08-26T21:49:44.098Z,65.72
2022-08-26T21:52:46.647Z,65.30
2022-08-26T21:55:49.386Z,65.40
2022-08-26T21:58:52.550Z,65.78
2022-08-26T22:01:56.857Z,66.13
2022-08-26T22:04:59.366Z,67.53
2022-08-26T22:08:01.546Z,67.57
2022-08-26T22:11:05.746Z,68.31
2022-08-26T22:14:08.556Z,69.05
2022-08-26T22:17:11.186Z,69.14
2022-08-26T22:20:16.454Z,69.63
2022-08-26T22:23:20.793Z,70.65
2022-08-26T22:26:27.207Z,70.98
2022-08-26T22:29:29.952Z,71.62
2022-08-26T22:32:32.437Z,72.46
2022-08-26T22:35:40.857Z,74.00
2022-08-26T22:38:43.167Z,73.40
2022-08-26T22:41:46.036Z,73.40
2022-08-26T22:44:48.196Z,73.00
2022-08-26T22:47:50.687Z,73.28
2022-08-26T22:50:59.555Z,73.36
2022-08-26T22:54:02.578Z,73.94
2022-08-26T22:57:04.866Z,73.97
2022-08-26T23:00:08.821Z,73.87
2022-08-26T23:03:14.593Z,73.87
2022-08-26T23:06:17.104Z,74.27
2022-08-26T23:09:19.471Z,74.17
2022-08-26T23:12:22.122Z,74.80
2022-08-26T23:15:25.275Z,75.05
2022-08-26T23:18:27.851Z,75.61
2022-08-26T23:21:30.159Z,76.95
2022-08-26T23:24:33.282Z,76.32
2022-08-26T23:27:37.591Z,76.57
2022-08-26T23:30:40.288Z,77.92
2022-08-26T23:34:01.124Z,77.47
2022-08-26T23:37:05.745Z,78.06
2022-08-26T23:40:13.360Z,78.21
2022-08-26T23:43:16.506Z,78.06
2022-08-26T23:46:19.695Z,78.28
2022-08-26T23:49:23.081Z,79.35
2022-08-26T23:52:44.044Z,79.12
2022-08-26T23:55:49.191Z,80.22
2022-08-26T23:58:51.529Z,80.31
